EGEC/CAL METAR and TAF weather

Enter ICAO airport designator
Station Type Date Time Source
EGEC METAR 2022/01/27 17:20 UTC NOAA

EGEC 271720Z 31019KT 9999 FEW030 08/05 Q1028


Station Type Date Time Source
EGEC Decoded METAR 2022/01/27 17:20 UTC NOAA

Campbeltown, United Kingdom (EGEC) 55-26-14N 005-41-11W
Jan 27, 2022 - 12:20 PM EST / 2022.01.27 1720 UTC
Wind: from the NW (310 degrees) at 22 MPH (19 KT):0
Visibility: greater than 7 mile(s):0
Sky conditions: mostly clear
Temperature: 46 F (8 C)
Dew Point: 41 F (5 C)
Relative Humidity: 81%
Pressure (altimeter): 30.36 in. Hg (1028 hPa)
ob: EGEC 271720Z 31019KT 9999 FEW030 08/05 Q1028
cycle: 17

Station Type Date Time Source
EGEC TAF UTC NOAA

Error!

Example: see airport list